createdAt,value
2017-06-08T00:02:05.673Z,0
2017-06-08T00:12:15.788Z,0
2017-06-08T00:22:25.908Z,0
2017-06-08T00:32:36.025Z,0
2017-06-08T00:42:46.168Z,0
2017-06-08T00:52:56.294Z,0
2017-06-08T01:03:06.435Z,0
2017-06-08T01:13:16.486Z,0
2017-06-08T01:23:26.575Z,0
2017-06-08T01:33:36.648Z,0
2017-06-08T01:43:46.762Z,0
2017-06-08T01:53:56.885Z,0
2017-06-08T02:04:06.989Z,0
2017-06-08T02:14:17.105Z,0
2017-06-08T02:24:27.161Z,0
2017-06-08T02:34:37.269Z,0
2017-06-08T02:44:47.345Z,0
2017-06-08T02:54:57.439Z,0
2017-06-08T03:05:07.444Z,0
2017-06-08T03:15:17.478Z,10
2017-06-08T03:25:27.493Z,15
2017-06-08T03:35:37.515Z,25
2017-06-08T03:45:47.487Z,45
2017-06-08T03:55:57.456Z,45
2017-06-08T04:06:07.447Z,50
2017-06-08T04:16:17.445Z,65
2017-06-08T04:26:27.468Z,65
2017-06-08T04:36:37.541Z,50
2017-06-08T04:46:47.617Z,40
2017-06-08T04:56:57.739Z,50
2017-06-08T05:07:07.846Z,80
2017-06-08T05:17:17.984Z,80
2017-06-08T05:27:28.120Z,145
2017-06-08T05:37:38.172Z,190
2017-06-08T05:47:48.185Z,295
2017-06-08T05:57:58.165Z,315
2017-06-08T06:08:07.977Z,670
2017-06-08T06:18:17.543Z,675
2017-06-08T06:28:26.950Z,535
2017-06-08T06:38:36.155Z,945
2017-06-08T06:48:45.283Z,605
2017-06-08T06:58:54.426Z,485
2017-06-08T07:09:03.595Z,555
2017-06-08T07:19:12.787Z,520
2017-06-08T07:29:22.000Z,725
2017-06-08T07:39:31.114Z,575
2017-06-08T07:49:40.174Z,600
2017-06-08T07:59:49.276Z,550
2017-06-08T08:09:58.340Z,805
2017-06-08T08:20:07.271Z,985
2017-06-08T08:30:16.046Z,1530
2017-06-08T08:40:24.576Z,1525
2017-06-08T08:50:32.922Z,1455
2017-06-08T09:00:41.081Z,1775
2017-06-08T09:10:49.132Z,1655
2017-06-08T09:20:56.993Z,2070
2017-06-08T09:31:04.789Z,1825
2017-06-08T09:41:12.459Z,1945
2017-06-08T09:51:20.158Z,1790
2017-06-08T10:01:27.859Z,2850
2017-06-08T10:11:35.405Z,2595
2017-06-08T10:21:42.917Z,2060
2017-06-08T10:31:50.572Z,1775
2017-06-08T10:41:58.154Z,2155
2017-06-08T10:52:05.680Z,1535
2017-06-08T11:02:13.255Z,1130
2017-06-08T11:12:21.009Z,2115
2017-06-08T11:22:28.727Z,1040
2017-06-08T11:32:36.553Z,1070
2017-06-08T11:42:44.470Z,1085
2017-06-08T11:52:52.296Z,985
2017-06-08T12:03:00.113Z,1280
2017-06-08T12:13:07.905Z,1125
2017-06-08T12:23:15.647Z,1675
2017-06-08T12:33:23.287Z,1625
2017-06-08T12:43:30.778Z,2200
2017-06-08T12:53:38.181Z,2560
2017-06-08T13:03:45.398Z,2000
2017-06-08T13:13:52.638Z,1910
2017-06-08T13:23:59.897Z,2055
2017-06-08T13:34:07.120Z,1600
2017-06-08T13:44:14.433Z,2450
2017-06-08T13:54:21.715Z,1905
2017-06-08T14:04:29.015Z,1380
2017-06-08T14:14:36.257Z,1645
2017-06-08T14:24:43.520Z,2340
2017-06-08T14:34:50.601Z,2050
2017-06-08T14:44:57.717Z,1505
2017-06-08T14:55:04.917Z,1140
2017-06-08T15:05:12.319Z,1175
2017-06-08T15:15:19.721Z,1325
2017-06-08T15:25:27.120Z,1280
2017-06-08T15:35:34.433Z,1350
2017-06-08T15:45:41.765Z,755
2017-06-08T15:55:49.279Z,1155
2017-06-08T16:05:56.764Z,910
2017-06-08T16:16:04.287Z,805
2017-06-08T16:26:11.852Z,695
2017-06-08T16:36:19.524Z,555
2017-06-08T16:46:27.339Z,580
2017-06-08T16:56:35.000Z,780
2017-06-08T17:06:42.276Z,710
2017-06-08T17:16:49.530Z,640
2017-06-08T17:26:56.816Z,450
2017-06-08T17:37:04.368Z,480
2017-06-08T17:47:11.898Z,425
2017-06-08T17:57:19.628Z,370
2017-06-08T18:07:27.577Z,280
2017-06-08T18:17:35.499Z,205
2017-06-08T18:27:43.746Z,175
2017-06-08T18:37:51.979Z,135
2017-06-08T18:48:00.415Z,95
2017-06-08T18:58:08.915Z,75
2017-06-08T19:08:17.469Z,95
2017-06-08T19:18:25.924Z,70
2017-06-08T19:28:34.393Z,40
2017-06-08T19:38:42.973Z,20
2017-06-08T19:48:51.640Z,10
2017-06-08T19:59:00.407Z,0
2017-06-08T20:09:09.214Z,0
2017-06-08T20:19:17.988Z,0
2017-06-08T20:29:26.802Z,0
2017-06-08T20:39:35.606Z,0
2017-06-08T20:49:44.465Z,0
2017-06-08T20:59:53.241Z,0
2017-06-08T21:10:02.098Z,0
2017-06-08T21:20:10.974Z,0
2017-06-08T21:30:19.827Z,0
2017-06-08T21:40:28.728Z,0
2017-06-08T21:50:37.657Z,0
2017-06-08T22:00:46.520Z,0
2017-06-08T22:10:55.421Z,0
2017-06-08T22:21:04.367Z,0
2017-06-08T22:31:13.359Z,0
2017-06-08T22:41:22.329Z,0
2017-06-08T22:51:31.363Z,0
2017-06-08T23:01:40.379Z,0
2017-06-08T23:11:49.435Z,0
2017-06-08T23:21:58.555Z,0
2017-06-08T23:32:07.704Z,0
2017-06-08T23:42:16.897Z,0
2017-06-08T23:52:26.091Z,0
